sensor_id;sensor_type;location;lat;lon;timestamp;P1;durP1;ratioP1;P2;durP2;ratioP2
47155;SDS011;32908;52.344;16.858;2022-09-09T10:44:41;3.97;;;2.13;;
47155;SDS011;32908;52.344;16.858;2022-09-09T10:50:29;2.37;;;2.00;;
47155;SDS011;32908;52.344;16.858;2022-09-09T10:53:14;4.27;;;2.23;;
47155;SDS011;32908;52.344;16.858;2022-09-09T10:55:48;5.17;;;2.47;;
47155;SDS011;32908;52.344;16.858;2022-09-09T10:58:23;3.70;;;2.03;;
47155;SDS011;32908;52.344;16.858;2022-09-09T11:00:57;3.60;;;1.97;;
47155;SDS011;32908;52.344;16.858;2022-09-09T11:03:31;4.17;;;2.33;;
47155;SDS011;32908;52.344;16.858;2022-09-09T11:06:05;5.07;;;2.13;;
47155;SDS011;32908;52.344;16.858;2022-09-09T11:08:39;2.27;;;1.63;;
47155;SDS011;32908;52.344;16.858;2022-09-09T11:11:12;3.00;;;1.70;;
47155;SDS011;32908;52.344;16.858;2022-09-09T11:13:46;3.67;;;1.67;;
47155;SDS011;32908;52.344;16.858;2022-09-09T11:16:24;2.37;;;1.43;;
47155;SDS011;32908;52.344;16.858;2022-09-09T11:18:58;2.20;;;1.70;;
47155;SDS011;32908;52.344;16.858;2022-09-09T11:21:32;2.23;;;1.60;;
47155;SDS011;32908;52.344;16.858;2022-09-09T11:26:38;2.70;;;1.50;;
47155;SDS011;32908;52.344;16.858;2022-09-09T11:32:23;1.70;;;1.30;;
47155;SDS011;32908;52.344;16.858;2022-09-09T11:35:06;4.87;;;1.80;;
47155;SDS011;32908;52.344;16.858;2022-09-09T11:40:42;3.37;;;1.40;;
47155;SDS011;32908;52.344;16.858;2022-09-09T11:43:15;22.33;;;13.53;;
47155;SDS011;32908;52.344;16.858;2022-09-09T11:45:52;6.77;;;5.27;;
47155;SDS011;32908;52.344;16.858;2022-09-09T11:48:28;4.30;;;2.23;;
47155;SDS011;32908;52.344;16.858;2022-09-09T11:51:13;4.20;;;1.67;;
47155;SDS011;32908;52.344;16.858;2022-09-09T11:53:58;4.30;;;1.47;;
47155;SDS011;32908;52.344;16.858;2022-09-09T11:56:30;1.97;;;1.27;;
47155;SDS011;32908;52.344;16.858;2022-09-09T11:59:03;4.27;;;1.93;;
47155;SDS011;32908;52.344;16.858;2022-09-09T12:01:36;3.70;;;1.57;;
47155;SDS011;32908;52.344;16.858;2022-09-09T12:04:15;4.57;;;1.67;;
47155;SDS011;32908;52.344;16.858;2022-09-09T12:06:51;3.17;;;1.40;;
47155;SDS011;32908;52.344;16.858;2022-09-09T12:09:27;2.07;;;1.20;;
47155;SDS011;32908;52.344;16.858;2022-09-09T12:12:17;2.70;;;1.40;;
47155;SDS011;32908;52.344;16.858;2022-09-09T12:14:57;3.17;;;1.00;;
47155;SDS011;32908;52.344;16.858;2022-09-09T12:17:49;3.43;;;1.40;;
47155;SDS011;32908;52.344;16.858;2022-09-09T12:20:22;2.40;;;1.10;;
47155;SDS011;32908;52.344;16.858;2022-09-09T12:22:59;2.57;;;1.23;;
47155;SDS011;32908;52.344;16.858;2022-09-09T12:25:52;3.17;;;1.33;;
47155;SDS011;32908;52.344;16.858;2022-09-09T12:28:50;3.70;;;1.30;;
47155;SDS011;32908;52.344;16.858;2022-09-09T12:31:29;3.87;;;1.30;;
47155;SDS011;32908;52.344;16.858;2022-09-09T12:34:06;1.53;;;1.20;;
47155;SDS011;32908;52.344;16.858;2022-09-09T12:36:41;3.20;;;1.20;;
47155;SDS011;32908;52.344;16.858;2022-09-09T12:39:17;3.17;;;1.10;;
47155;SDS011;32908;52.344;16.858;2022-09-09T12:41:58;2.90;;;1.60;;
47155;SDS011;32908;52.344;16.858;2022-09-09T12:44:32;7.57;;;1.70;;
47155;SDS011;32908;52.344;16.858;2022-09-09T12:47:03;4.90;;;2.70;;
47155;SDS011;32908;52.344;16.858;2022-09-09T12:49:38;3.13;;;1.50;;
47155;SDS011;32908;52.344;16.858;2022-09-09T12:52:12;1.57;;;1.17;;
47155;SDS011;32908;52.344;16.858;2022-09-09T12:54:47;1.37;;;1.03;;
47155;SDS011;32908;52.344;16.858;2022-09-09T12:57:23;1.87;;;1.20;;
47155;SDS011;32908;52.344;16.858;2022-09-09T13:00:02;2.93;;;1.20;;
47155;SDS011;32908;52.344;16.858;2022-09-09T13:02:51;1.87;;;1.00;;
47155;SDS011;32908;52.344;16.858;2022-09-09T13:05:26;1.77;;;1.17;;
47155;SDS011;32908;52.344;16.858;2022-09-09T13:08:02;2.95;;;1.10;;
47155;SDS011;32908;52.344;16.858;2022-09-09T13:10:36;2.13;;;1.10;;
47155;SDS011;32908;52.344;16.858;2022-09-09T13:13:13;3.40;;;1.13;;
47155;SDS011;32908;52.344;16.858;2022-09-09T13:15:50;1.67;;;1.00;;
47155;SDS011;32908;52.344;16.858;2022-09-09T13:18:23;2.47;;;1.10;;
47155;SDS011;32908;52.344;16.858;2022-09-09T13:20:56;4.20;;;1.40;;
47155;SDS011;32908;52.344;16.858;2022-09-09T13:23:29;4.07;;;1.00;;
47155;SDS011;32908;52.344;16.858;2022-09-09T13:26:03;3.17;;;1.20;;
47155;SDS011;32908;52.344;16.858;2022-09-09T13:28:49;1.60;;;0.93;;
47155;SDS011;32908;52.344;16.858;2022-09-09T13:31:23;1.43;;;1.07;;
47155;SDS011;32908;52.344;16.858;2022-09-09T13:33:57;1.25;;;1.05;;
47155;SDS011;32908;52.344;16.858;2022-09-09T13:36:28;1.83;;;0.90;;
47155;SDS011;32908;52.344;16.858;2022-09-09T13:39:02;3.03;;;1.30;;
47155;SDS011;32908;52.344;16.858;2022-09-09T13:41:35;3.33;;;1.03;;
47155;SDS011;32908;52.344;16.858;2022-09-09T13:44:17;1.73;;;1.00;;
47155;SDS011;32908;52.344;16.858;2022-09-09T13:47:01;1.27;;;1.00;;
47155;SDS011;32908;52.344;16.858;2022-09-09T13:49:33;2.83;;;1.20;;
47155;SDS011;32908;52.344;16.858;2022-09-09T13:52:05;2.63;;;0.90;;
47155;SDS011;32908;52.344;16.858;2022-09-09T13:54:41;3.00;;;1.10;;
47155;SDS011;32908;52.344;16.858;2022-09-09T13:57:16;2.20;;;0.90;;
47155;SDS011;32908;52.344;16.858;2022-09-09T13:59:49;1.55;;;0.70;;
47155;SDS011;32908;52.344;16.858;2022-09-09T14:02:20;1.57;;;0.70;;
47155;SDS011;32908;52.344;16.858;2022-09-09T14:04:53;2.45;;;0.95;;
47155;SDS011;32908;52.344;16.858;2022-09-09T14:07:26;1.23;;;0.80;;
47155;SDS011;32908;52.344;16.858;2022-09-09T14:09:58;2.43;;;1.17;;
47155;SDS011;32908;52.344;16.858;2022-09-09T14:12:29;2.03;;;0.90;;
47155;SDS011;32908;52.344;16.858;2022-09-09T14:15:01;1.90;;;1.10;;
47155;SDS011;32908;52.344;16.858;2022-09-09T14:17:32;3.07;;;1.20;;
47155;SDS011;32908;52.344;16.858;2022-09-09T14:20:04;1.90;;;1.17;;
47155;SDS011;32908;52.344;16.858;2022-09-09T14:22:36;1.50;;;0.90;;
47155;SDS011;32908;52.344;16.858;2022-09-09T14:25:09;2.23;;;0.80;;
47155;SDS011;32908;52.344;16.858;2022-09-09T14:27:41;2.63;;;1.10;;
47155;SDS011;32908;52.344;16.858;2022-09-09T14:30:13;1.53;;;0.90;;
47155;SDS011;32908;52.344;16.858;2022-09-09T14:32:44;2.90;;;1.03;;
47155;SDS011;32908;52.344;16.858;2022-09-09T14:35:16;4.20;;;1.37;;
47155;SDS011;32908;52.344;16.858;2022-09-09T14:37:46;4.43;;;1.40;;
47155;SDS011;32908;52.344;16.858;2022-09-09T14:40:20;2.93;;;1.07;;
47155;SDS011;32908;52.344;16.858;2022-09-09T14:42:52;1.70;;;1.10;;
47155;SDS011;32908;52.344;16.858;2022-09-09T14:45:24;3.35;;;1.25;;
47155;SDS011;32908;52.344;16.858;2022-09-09T14:47:56;4.23;;;1.10;;
47155;SDS011;32908;52.344;16.858;2022-09-09T14:50:27;2.23;;;1.10;;
47155;SDS011;32908;52.344;16.858;2022-09-09T14:53:00;3.27;;;1.10;;
47155;SDS011;32908;52.344;16.858;2022-09-09T14:55:31;1.97;;;0.90;;
47155;SDS011;32908;52.344;16.858;2022-09-09T14:58:02;1.70;;;1.10;;
47155;SDS011;32908;52.344;16.858;2022-09-09T15:00:34;2.60;;;1.10;;
47155;SDS011;32908;52.344;16.858;2022-09-09T15:03:06;2.10;;;1.70;;
47155;SDS011;32908;52.344;16.858;2022-09-09T15:05:38;2.17;;;1.83;;
47155;SDS011;32908;52.344;16.858;2022-09-09T15:08:10;3.67;;;1.50;;
47155;SDS011;32908;52.344;16.858;2022-09-09T15:10:41;3.43;;;1.60;;
47155;SDS011;32908;52.344;16.858;2022-09-09T15:13:16;3.17;;;1.10;;
47155;SDS011;32908;52.344;16.858;2022-09-09T15:15:47;1.30;;;1.07;;
47155;SDS011;32908;52.344;16.858;2022-09-09T15:18:18;2.93;;;1.20;;
47155;SDS011;32908;52.344;16.858;2022-09-09T15:20:50;4.87;;;1.47;;
47155;SDS011;32908;52.344;16.858;2022-09-09T15:23:24;1.63;;;1.10;;
47155;SDS011;32908;52.344;16.858;2022-09-09T15:25:55;4.00;;;1.45;;
47155;SDS011;32908;52.344;16.858;2022-09-09T15:28:27;1.97;;;1.37;;
47155;SDS011;32908;52.344;16.858;2022-09-09T15:30:59;2.17;;;1.10;;
47155;SDS011;32908;52.344;16.858;2022-09-09T15:33:36;2.30;;;1.13;;
47155;SDS011;32908;52.344;16.858;2022-09-09T15:36:17;3.57;;;1.27;;
47155;SDS011;32908;52.344;16.858;2022-09-09T15:38:51;2.37;;;1.30;;
47155;SDS011;32908;52.344;16.858;2022-09-09T15:41:23;2.87;;;1.20;;
47155;SDS011;32908;52.344;16.858;2022-09-09T15:43:56;3.37;;;1.27;;
47155;SDS011;32908;52.344;16.858;2022-09-09T15:46:31;1.37;;;1.03;;
47155;SDS011;32908;52.344;16.858;2022-09-09T15:49:06;3.10;;;1.50;;
47155;SDS011;32908;52.344;16.858;2022-09-09T15:51:41;9.27;;;1.70;;
47155;SDS011;32908;52.344;16.858;2022-09-09T15:54:14;3.17;;;1.82;;
47155;SDS011;32908;52.344;16.858;2022-09-09T15:56:50;6.83;;;2.10;;
47155;SDS011;32908;52.344;16.858;2022-09-09T15:59:24;3.10;;;2.05;;
47155;SDS011;32908;52.344;16.858;2022-09-09T16:01:57;2.23;;;1.50;;
47155;SDS011;32908;52.344;16.858;2022-09-09T16:04:29;2.67;;;1.50;;
47155;SDS011;32908;52.344;16.858;2022-09-09T16:07:02;4.97;;;1.70;;
47155;SDS011;32908;52.344;16.858;2022-09-09T16:09:35;5.85;;;1.70;;
47155;SDS011;32908;52.344;16.858;2022-09-09T16:12:06;1.77;;;1.30;;
47155;SDS011;32908;52.344;16.858;2022-09-09T16:14:39;3.57;;;1.43;;
47155;SDS011;32908;52.344;16.858;2022-09-09T16:17:14;3.53;;;1.60;;
47155;SDS011;32908;52.344;16.858;2022-09-09T16:19:48;3.20;;;1.50;;
47155;SDS011;32908;52.344;16.858;2022-09-09T16:22:20;4.80;;;1.60;;
47155;SDS011;32908;52.344;16.858;2022-09-09T16:24:52;7.90;;;1.83;;
47155;SDS011;32908;52.344;16.858;2022-09-09T16:27:24;3.53;;;2.00;;
47155;SDS011;32908;52.344;16.858;2022-09-09T16:29:56;4.40;;;1.70;;
47155;SDS011;32908;52.344;16.858;2022-09-09T16:32:27;8.20;;;1.93;;
47155;SDS011;32908;52.344;16.858;2022-09-09T16:34:59;6.37;;;1.80;;
47155;SDS011;32908;52.344;16.858;2022-09-09T16:37:30;2.10;;;1.50;;
47155;SDS011;32908;52.344;16.858;2022-09-09T16:40:03;3.90;;;1.53;;
47155;SDS011;32908;52.344;16.858;2022-09-09T16:42:36;2.40;;;1.60;;
47155;SDS011;32908;52.344;16.858;2022-09-09T16:45:09;3.47;;;1.40;;
47155;SDS011;32908;52.344;16.858;2022-09-09T16:47:41;2.83;;;1.40;;
47155;SDS011;32908;52.344;16.858;2022-09-09T16:50:14;3.70;;;1.43;;
47155;SDS011;32908;52.344;16.858;2022-09-09T16:52:48;4.70;;;1.73;;
47155;SDS011;32908;52.344;16.858;2022-09-09T16:55:20;2.77;;;1.50;;
47155;SDS011;32908;52.344;16.858;2022-09-09T16:57:51;7.27;;;2.60;;
47155;SDS011;32908;52.344;16.858;2022-09-09T17:00:22;4.97;;;4.20;;
47155;SDS011;32908;52.344;16.858;2022-09-09T17:02:55;7.73;;;6.40;;
47155;SDS011;32908;52.344;16.858;2022-09-09T17:05:26;7.20;;;5.03;;
47155;SDS011;32908;52.344;16.858;2022-09-09T17:07:57;6.23;;;3.70;;
47155;SDS011;32908;52.344;16.858;2022-09-09T17:10:29;4.30;;;3.20;;
47155;SDS011;32908;52.344;16.858;2022-09-09T17:13:01;6.20;;;3.93;;
47155;SDS011;32908;52.344;16.858;2022-09-09T17:15:31;6.73;;;4.27;;
47155;SDS011;32908;52.344;16.858;2022-09-09T17:18:03;6.30;;;4.30;;
47155;SDS011;32908;52.344;16.858;2022-09-09T17:20:36;7.70;;;4.65;;
47155;SDS011;32908;52.344;16.858;2022-09-09T17:23:09;45.53;;;21.00;;
47155;SDS011;32908;52.344;16.858;2022-09-09T17:25:43;89.00;;;40.53;;
47155;SDS011;32908;52.344;16.858;2022-09-09T17:28:14;65.83;;;30.80;;
47155;SDS011;32908;52.344;16.858;2022-09-09T17:30:53;66.40;;;32.10;;
47155;SDS011;32908;52.344;16.858;2022-09-09T17:33:28;50.93;;;26.03;;
47155;SDS011;32908;52.344;16.858;2022-09-09T17:36:02;52.00;;;23.85;;
47155;SDS011;32908;52.344;16.858;2022-09-09T17:38:38;52.70;;;25.50;;
47155;SDS011;32908;52.344;16.858;2022-09-09T17:41:11;118.53;;;31.17;;
47155;SDS011;32908;52.344;16.858;2022-09-09T17:43:44;50.97;;;24.43;;
47155;SDS011;32908;52.344;16.858;2022-09-09T17:46:16;50.43;;;23.97;;
47155;SDS011;32908;52.344;16.858;2022-09-09T17:48:50;42.55;;;22.50;;
47155;SDS011;32908;52.344;16.858;2022-09-09T17:51:25;36.03;;;20.63;;
47155;SDS011;32908;52.344;16.858;2022-09-09T17:54:00;35.60;;;20.67;;
47155;SDS011;32908;52.344;16.858;2022-09-09T17:56:32;32.53;;;19.00;;
47155;SDS011;32908;52.344;16.858;2022-09-09T17:59:05;29.03;;;17.10;;
47155;SDS011;32908;52.344;16.858;2022-09-09T18:01:39;26.93;;;17.83;;
47155;SDS011;32908;52.344;16.858;2022-09-09T18:04:12;28.93;;;16.40;;
47155;SDS011;32908;52.344;16.858;2022-09-09T18:06:44;23.20;;;14.30;;
47155;SDS011;32908;52.344;16.858;2022-09-09T18:09:16;19.80;;;12.43;;
47155;SDS011;32908;52.344;16.858;2022-09-09T18:11:50;17.75;;;10.70;;
47155;SDS011;32908;52.344;16.858;2022-09-09T18:14:23;18.33;;;10.27;;
47155;SDS011;32908;52.344;16.858;2022-09-09T18:16:57;18.53;;;11.67;;
47155;SDS011;32908;52.344;16.858;2022-09-09T18:19:31;21.10;;;14.07;;
47155;SDS011;32908;52.344;16.858;2022-09-09T18:22:03;27.77;;;14.80;;
47155;SDS011;32908;52.344;16.858;2022-09-09T18:24:34;21.30;;;13.53;;
47155;SDS011;32908;52.344;16.858;2022-09-09T18:27:07;20.93;;;11.20;;
47155;SDS011;32908;52.344;16.858;2022-09-09T18:29:38;20.43;;;12.73;;
47155;SDS011;32908;52.344;16.858;2022-09-09T18:32:10;18.25;;;11.20;;
47155;SDS011;32908;52.344;16.858;2022-09-09T18:34:42;17.40;;;10.90;;
47155;SDS011;32908;52.344;16.858;2022-09-09T18:37:13;19.83;;;12.10;;
47155;SDS011;32908;52.344;16.858;2022-09-09T18:39:45;21.07;;;12.77;;
47155;SDS011;32908;52.344;16.858;2022-09-09T18:42:15;17.45;;;11.90;;
47155;SDS011;32908;52.344;16.858;2022-09-09T18:44:47;18.70;;;10.70;;
47155;SDS011;32908;52.344;16.858;2022-09-09T18:47:18;17.50;;;10.60;;
47155;SDS011;32908;52.344;16.858;2022-09-09T18:49:51;21.57;;;12.80;;
47155;SDS011;32908;52.344;16.858;2022-09-09T18:52:22;21.40;;;13.57;;
47155;SDS011;32908;52.344;16.858;2022-09-09T18:54:54;12.77;;;9.90;;
47155;SDS011;32908;52.344;16.858;2022-09-09T18:57:24;13.20;;;6.77;;
47155;SDS011;32908;52.344;16.858;2022-09-09T18:59:55;9.45;;;5.45;;
47155;SDS011;32908;52.344;16.858;2022-09-09T19:02:27;8.83;;;4.80;;
47155;SDS011;32908;52.344;16.858;2022-09-09T19:05:00;8.60;;;5.43;;
47155;SDS011;32908;52.344;16.858;2022-09-09T19:07:31;7.65;;;5.35;;
47155;SDS011;32908;52.344;16.858;2022-09-09T19:10:02;7.83;;;4.90;;
47155;SDS011;32908;52.344;16.858;2022-09-09T19:12:35;6.97;;;4.83;;
47155;SDS011;32908;52.344;16.858;2022-09-09T19:15:09;7.30;;;5.10;;
47155;SDS011;32908;52.344;16.858;2022-09-09T19:17:40;8.97;;;5.90;;
47155;SDS011;32908;52.344;16.858;2022-09-09T19:20:12;11.87;;;6.30;;
47155;SDS011;32908;52.344;16.858;2022-09-09T19:22:44;8.00;;;5.77;;
47155;SDS011;32908;52.344;16.858;2022-09-09T19:25:15;9.10;;;5.63;;
47155;SDS011;32908;52.344;16.858;2022-09-09T19:27:46;7.73;;;4.93;;
47155;SDS011;32908;52.344;16.858;2022-09-09T19:30:18;7.80;;;5.60;;
47155;SDS011;32908;52.344;16.858;2022-09-09T19:32:49;8.25;;;4.80;;
47155;SDS011;32908;52.344;16.858;2022-09-09T19:35:20;7.43;;;4.93;;
47155;SDS011;32908;52.344;16.858;2022-09-09T19:37:51;13.43;;;5.00;;
47155;SDS011;32908;52.344;16.858;2022-09-09T19:40:22;7.50;;;5.03;;
47155;SDS011;32908;52.344;16.858;2022-09-09T19:42:53;7.50;;;4.60;;
47155;SDS011;32908;52.344;16.858;2022-09-09T19:45:24;6.10;;;4.70;;
47155;SDS011;32908;52.344;16.858;2022-09-09T19:48:00;6.57;;;4.63;;
47155;SDS011;32908;52.344;16.858;2022-09-09T19:50:35;7.70;;;4.65;;
47155;SDS011;32908;52.344;16.858;2022-09-09T19:53:07;6.43;;;4.80;;
47155;SDS011;32908;52.344;16.858;2022-09-09T19:55:39;8.50;;;4.97;;
47155;SDS011;32908;52.344;16.858;2022-09-09T19:58:10;6.97;;;4.97;;
47155;SDS011;32908;52.344;16.858;2022-09-09T20:00:41;6.70;;;4.83;;
47155;SDS011;32908;52.344;16.858;2022-09-09T20:03:12;6.63;;;5.50;;
47155;SDS011;32908;52.344;16.858;2022-09-09T20:05:43;12.83;;;7.30;;
47155;SDS011;32908;52.344;16.858;2022-09-09T20:08:16;32.70;;;15.17;;
47155;SDS011;32908;52.344;16.858;2022-09-09T20:10:51;19.57;;;9.73;;
47155;SDS011;32908;52.344;16.858;2022-09-09T20:13:23;13.47;;;7.90;;
47155;SDS011;32908;52.344;16.858;2022-09-09T20:15:58;42.10;;;20.47;;
47155;SDS011;32908;52.344;16.858;2022-09-09T20:18:31;22.02;;;10.20;;
47155;SDS011;32908;52.344;16.858;2022-09-09T20:21:05;20.07;;;9.60;;
47155;SDS011;32908;52.344;16.858;2022-09-09T20:23:37;21.07;;;10.27;;
47155;SDS011;32908;52.344;16.858;2022-09-09T20:26:11;36.53;;;21.13;;
47155;SDS011;32908;52.344;16.858;2022-09-09T20:28:44;65.17;;;38.17;;
47155;SDS011;32908;52.344;16.858;2022-09-09T20:31:16;56.35;;;32.45;;
47155;SDS011;32908;52.344;16.858;2022-09-09T20:33:48;33.83;;;20.97;;
47155;SDS011;32908;52.344;16.858;2022-09-09T20:36:21;42.70;;;24.27;;
47155;SDS011;32908;52.344;16.858;2022-09-09T20:38:54;40.37;;;23.60;;
47155;SDS011;32908;52.344;16.858;2022-09-09T20:41:27;33.50;;;21.80;;
47155;SDS011;32908;52.344;16.858;2022-09-09T20:44:00;20.97;;;12.03;;
47155;SDS011;32908;52.344;16.858;2022-09-09T20:46:33;10.17;;;7.23;;
47155;SDS011;32908;52.344;16.858;2022-09-09T20:49:06;7.30;;;5.67;;
47155;SDS011;32908;52.344;16.858;2022-09-09T20:51:37;11.83;;;6.30;;
47155;SDS011;32908;52.344;16.858;2022-09-09T20:54:09;13.97;;;7.90;;
47155;SDS011;32908;52.344;16.858;2022-09-09T20:56:43;12.73;;;8.20;;
47155;SDS011;32908;52.344;16.858;2022-09-09T20:59:15;8.83;;;5.70;;
47155;SDS011;32908;52.344;16.858;2022-09-09T21:01:47;7.17;;;4.63;;
47155;SDS011;32908;52.344;16.858;2022-09-09T21:04:18;11.97;;;6.17;;
47155;SDS011;32908;52.344;16.858;2022-09-09T21:06:50;13.27;;;6.63;;
47155;SDS011;32908;52.344;16.858;2022-09-09T21:09:21;12.97;;;7.10;;
47155;SDS011;32908;52.344;16.858;2022-09-09T21:11:52;9.20;;;6.00;;
47155;SDS011;32908;52.344;16.858;2022-09-09T21:14:26;8.87;;;5.27;;
47155;SDS011;32908;52.344;16.858;2022-09-09T21:16:59;7.95;;;5.30;;
47155;SDS011;32908;52.344;16.858;2022-09-09T21:19:30;8.27;;;4.87;;
47155;SDS011;32908;52.344;16.858;2022-09-09T21:22:02;7.37;;;4.50;;
47155;SDS011;32908;52.344;16.858;2022-09-09T21:24:33;5.50;;;4.53;;
47155;SDS011;32908;52.344;16.858;2022-09-09T21:27:05;6.47;;;4.30;;
47155;SDS011;32908;52.344;16.858;2022-09-09T21:29:36;6.60;;;4.90;;
47155;SDS011;32908;52.344;16.858;2022-09-09T21:32:07;5.90;;;4.60;;
47155;SDS011;32908;52.344;16.858;2022-09-09T21:34:37;6.70;;;4.60;;
47155;SDS011;32908;52.344;16.858;2022-09-09T21:37:11;6.93;;;4.53;;
47155;SDS011;32908;52.344;16.858;2022-09-09T21:39:43;6.50;;;4.90;;
47155;SDS011;32908;52.344;16.858;2022-09-09T21:42:17;6.47;;;5.00;;
47155;SDS011;32908;52.344;16.858;2022-09-09T21:44:48;8.27;;;6.00;;
47155;SDS011;32908;52.344;16.858;2022-09-09T21:47:19;6.50;;;5.27;;
47155;SDS011;32908;52.344;16.858;2022-09-09T21:49:51;8.40;;;5.83;;
47155;SDS011;32908;52.344;16.858;2022-09-09T21:52:23;9.30;;;6.03;;
47155;SDS011;32908;52.344;16.858;2022-09-09T21:54:54;7.60;;;5.67;;
47155;SDS011;32908;52.344;16.858;2022-09-09T21:57:25;9.00;;;5.47;;
47155;SDS011;32908;52.344;16.858;2022-09-09T21:59:56;7.43;;;5.53;;
47155;SDS011;32908;52.344;16.858;2022-09-09T22:02:27;8.27;;;5.90;;
47155;SDS011;32908;52.344;16.858;2022-09-09T22:05:01;10.20;;;5.97;;
47155;SDS011;32908;52.344;16.858;2022-09-09T22:07:33;8.20;;;5.27;;
47155;SDS011;32908;52.344;16.858;2022-09-09T22:10:05;7.40;;;5.17;;
47155;SDS011;32908;52.344;16.858;2022-09-09T22:12:39;5.77;;;4.90;;
47155;SDS011;32908;52.344;16.858;2022-09-09T22:15:13;6.43;;;5.10;;
47155;SDS011;32908;52.344;16.858;2022-09-09T22:17:44;5.80;;;5.07;;
47155;SDS011;32908;52.344;16.858;2022-09-09T22:20:15;8.77;;;4.73;;
47155;SDS011;32908;52.344;16.858;2022-09-09T22:22:48;6.83;;;4.90;;
47155;SDS011;32908;52.344;16.858;2022-09-09T22:25:22;6.20;;;4.75;;
47155;SDS011;32908;52.344;16.858;2022-09-09T22:27:54;11.70;;;5.10;;
47155;SDS011;32908;52.344;16.858;2022-09-09T22:30:24;6.30;;;5.50;;
47155;SDS011;32908;52.344;16.858;2022-09-09T22:32:55;7.87;;;5.17;;
47155;SDS011;32908;52.344;16.858;2022-09-09T22:35:27;10.77;;;6.00;;
47155;SDS011;32908;52.344;16.858;2022-09-09T22:38:00;6.50;;;4.83;;
47155;SDS011;32908;52.344;16.858;2022-09-09T22:40:30;7.77;;;4.80;;
47155;SDS011;32908;52.344;16.858;2022-09-09T22:43:05;8.77;;;5.07;;
47155;SDS011;32908;52.344;16.858;2022-09-09T22:45:38;10.17;;;5.40;;
47155;SDS011;32908;52.344;16.858;2022-09-09T22:48:12;5.87;;;4.97;;
47155;SDS011;32908;52.344;16.858;2022-09-09T22:50:43;6.37;;;5.10;;
47155;SDS011;32908;52.344;16.858;2022-09-09T22:53:15;6.17;;;4.50;;
47155;SDS011;32908;52.344;16.858;2022-09-09T22:55:56;5.70;;;4.60;;
47155;SDS011;32908;52.344;16.858;2022-09-09T22:58:28;6.40;;;4.75;;
47155;SDS011;32908;52.344;16.858;2022-09-09T23:01:06;6.30;;;4.77;;
47155;SDS011;32908;52.344;16.858;2022-09-09T23:03:39;4.57;;;3.57;;
47155;SDS011;32908;52.344;16.858;2022-09-09T23:06:15;6.60;;;4.20;;
47155;SDS011;32908;52.344;16.858;2022-09-09T23:08:49;4.37;;;3.40;;
47155;SDS011;32908;52.344;16.858;2022-09-09T23:11:22;6.00;;;3.33;;
47155;SDS011;32908;52.344;16.858;2022-09-09T23:13:58;4.00;;;2.90;;
47155;SDS011;32908;52.344;16.858;2022-09-09T23:16:32;5.27;;;2.70;;
47155;SDS011;32908;52.344;16.858;2022-09-09T23:19:07;4.57;;;2.97;;
47155;SDS011;32908;52.344;16.858;2022-09-09T23:21:38;5.43;;;2.87;;
47155;SDS011;32908;52.344;16.858;2022-09-09T23:24:11;4.50;;;2.43;;
47155;SDS011;32908;52.344;16.858;2022-09-09T23:26:43;6.67;;;2.80;;
47155;SDS011;32908;52.344;16.858;2022-09-09T23:29:14;3.33;;;2.40;;
47155;SDS011;32908;52.344;16.858;2022-09-09T23:31:46;3.70;;;2.03;;
47155;SDS011;32908;52.344;16.858;2022-09-09T23:34:17;4.60;;;2.53;;
47155;SDS011;32908;52.344;16.858;2022-09-09T23:36:48;3.90;;;2.30;;
47155;SDS011;32908;52.344;16.858;2022-09-09T23:39:20;4.37;;;2.53;;
47155;SDS011;32908;52.344;16.858;2022-09-09T23:41:51;2.45;;;2.25;;
47155;SDS011;32908;52.344;16.858;2022-09-09T23:44:23;3.10;;;2.80;;
47155;SDS011;32908;52.344;16.858;2022-09-09T23:46:54;4.00;;;2.80;;
47155;SDS011;32908;52.344;16.858;2022-09-09T23:49:26;6.50;;;3.00;;
47155;SDS011;32908;52.344;16.858;2022-09-09T23:51:58;10.07;;;3.03;;
47155;SDS011;32908;52.344;16.858;2022-09-09T23:54:30;3.57;;;3.00;;
47155;SDS011;32908;52.344;16.858;2022-09-09T23:57:02;3.77;;;3.00;;
47155;SDS011;32908;52.344;16.858;2022-09-09T23:59:34;3.67;;;3.03;;
